Time;durP1;ratioP1;P1;durP2;ratioP2;P2;SDS_P1;SDS_P2;PMS_P1;PMS_P2;Temp;Humidity;BMP_temperature;BMP_pressure;BME280_temperature;BME280_humidity;BME280_pressure;Samples;Min_cycle;Max_cycle;Signal;HPM_P1;HPM_P2
2021/01/22 00:01:05;;;;;;;67.88;46.58;;;;;;;1.22;79.11;95300.97;5016358;28;20049;-58
2021/01/22 00:03:32;;;;;;;63.90;44.65;;;;;;;1.18;79.45;95312.78;5013589;28;20090;-58
2021/01/22 00:06:00;;;;;;;68.30;46.22;;;;;;;1.15;79.47;95308.81;5000043;28;20053;-58
2021/01/22 00:08:27;;;;;;;64.60;44.85;;;;;;;1.14;79.37;95312.41;5014376;28;20048;-59
2021/01/22 00:10:55;;;;;;;63.00;43.50;;;;;;;1.13;79.62;95310.00;5004816;28;20398;-58
2021/01/22 00:13:22;;;;;;;59.60;41.42;;;;;;;1.16;79.50;95312.19;4997608;28;20053;-62
2021/01/22 00:15:49;;;;;;;56.75;37.72;;;;;;;1.17;79.25;95301.56;4994848;28;20049;-58
2021/01/22 00:18:16;;;;;;;52.05;37.83;;;;;;;1.17;79.00;95301.56;5013170;28;20061;-59
2021/01/22 00:20:43;;;;;;;50.95;36.50;;;;;;;1.15;79.06;95305.41;5004767;28;20052;-58
2021/01/22 00:23:11;;;;;;;58.13;39.72;;;;;;;1.14;79.31;95306.41;5014601;28;20056;-58
2021/01/22 00:25:38;;;;;;;58.90;37.95;;;;;;;1.17;79.00;95305.97;4996362;28;20041;-58
2021/01/22 00:28:05;;;;;;;58.83;41.30;;;;;;;1.11;79.20;95292.03;5014884;28;20045;-62
2021/01/22 00:30:33;;;;;;;57.58;40.30;;;;;;;1.16;79.36;95297.41;4991222;28;20050;-58
2021/01/22 00:33:01;;;;;;;52.67;36.75;;;;;;;1.17;79.10;95280.00;4992469;28;20057;-58
2021/01/22 00:35:28;;;;;;;57.03;37.90;;;;;;;1.14;79.39;95277.81;5003058;28;20046;-58
2021/01/22 00:37:55;;;;;;;52.38;35.78;;;;;;;1.09;79.39;95262.88;5005028;28;20056;-58
2021/01/22 00:40:22;;;;;;;57.55;37.08;;;;;;;1.07;79.52;95272.69;5016305;28;20053;-59
2021/01/22 00:42:50;;;;;;;56.10;39.65;;;;;;;1.05;79.82;95267.69;5016760;28;20054;-58
2021/01/22 00:45:17;;;;;;;66.85;42.58;;;;;;;1.07;79.90;95264.88;5001116;28;20060;-59
2021/01/22 00:47:44;;;;;;;62.30;41.45;;;;;;;1.04;80.10;95250.53;5017278;28;20053;-58
2021/01/22 00:50:12;;;;;;;64.45;41.38;;;;;;;1.08;79.63;95261.28;4998279;28;20718;-58
2021/01/22 00:52:39;;;;;;;59.30;42.33;;;;;;;1.06;80.24;95252.91;4997996;28;20053;-58
2021/01/22 00:55:07;;;;;;;60.58;42.75;;;;;;;1.06;80.73;95253.72;5004764;28;20054;-60
2021/01/22 00:57:40;;;;;;;61.17;43.95;;;;;;;0.99;80.42;95236.59;4996096;28;20057;-59
2021/01/22 01:00:09;;;;;;;62.25;42.72;;;;;;;1.07;80.34;95244.09;5009405;28;20050;-59
2021/01/22 01:02:47;;;;;;;63.78;43.78;;;;;;;1.07;80.56;95239.72;5004414;28;20052;-68
2021/01/22 01:05:20;;;;;;;62.97;42.85;;;;;;;1.06;80.30;95217.34;5012467;28;20041;-58
2021/01/22 01:07:48;;;;;;;62.42;40.10;;;;;;;1.08;80.28;95232.72;5004600;28;20053;-58
2021/01/22 01:10:21;;;;;;;61.55;41.08;;;;;;;1.09;80.42;95215.34;5012946;28;20501;-58
2021/01/22 01:13:23;;;;;;;59.00;39.72;;;;;;;1.10;80.01;95219.53;5006546;28;20053;-58
2021/01/22 01:16:10;;;;;;;60.85;40.53;;;;;;;1.08;80.03;95211.94;5013417;28;20042;-58
2021/01/22 01:18:37;;;;;;;54.33;39.10;;;;;;;1.09;80.19;95207.56;5015326;28;20049;-59
2021/01/22 01:21:05;;;;;;;51.30;39.70;;;;;;;1.09;80.55;95199.75;4974110;28;20057;-58
2021/01/22 01:23:32;;;;;;;59.35;39.25;;;;;;;1.07;80.60;95189.56;5012062;28;20079;-58
2021/01/22 01:26:01;;;;;;;54.30;40.78;;;;;;;0.99;80.24;95174.25;4996892;28;20045;-58
2021/01/22 01:28:29;;;;;;;55.33;40.28;;;;;;;1.08;80.53;95180.75;4979797;28;20421;-58
2021/01/22 01:30:56;;;;;;;54.97;39.97;;;;;;;1.09;81.10;95184.16;5014815;28;20041;-58
2021/01/22 01:33:23;;;;;;;60.25;40.15;;;;;;;1.11;81.50;95176.97;5009281;28;20068;-58
2021/01/22 01:35:53;;;;;;;51.05;39.05;;;;;;;1.11;81.22;95169.94;5002092;28;20505;-58
2021/01/22 01:38:20;;;;;;;54.13;37.28;;;;;;;1.17;81.12;95169.09;5017320;28;20041;-58
2021/01/22 01:40:48;;;;;;;50.65;34.22;;;;;;;1.21;81.59;95166.88;5013787;28;20049;-58
2021/01/22 01:43:15;;;;;;;48.00;33.33;;;;;;;1.26;81.00;95153.22;4996459;28;20045;-58
2021/01/22 01:45:42;;;;;;;45.38;27.98;;;;;;;1.36;82.16;95156.91;5018057;28;20045;-58
2021/01/22 01:48:10;;;;;;;48.17;29.75;;;;;;;1.45;80.88;95164.44;5016257;28;20919;-58
2021/01/22 01:50:39;;;;;;;41.45;28.45;;;;;;;1.50;80.12;95151.56;5006930;28;20705;-61
2021/01/22 01:53:07;;;;;;;40.90;25.30;;;;;;;1.54;81.61;95152.72;5017198;28;20049;-59
2021/01/22 01:55:35;;;;;;;38.88;26.98;;;;;;;1.67;80.42;95141.38;4999065;28;20046;-61
2021/01/22 01:58:05;;;;;;;40.80;26.30;;;;;;;1.70;79.86;95135.75;4998477;28;20045;-59
2021/01/22 02:00:34;;;;;;;38.08;24.98;;;;;;;1.71;79.99;95139.16;5011623;28;20057;-58
2021/01/22 02:03:09;;;;;;;36.58;25.13;;;;;;;1.76;79.78;95132.28;4994311;28;20053;-58
2021/01/22 02:05:47;;;;;;;32.15;21.63;;;;;;;1.79;79.90;95121.41;5014496;28;20431;-59
2021/01/22 02:08:16;;;;;;;33.28;24.17;;;;;;;1.83;79.77;95127.00;5019059;28;20050;-58
2021/01/22 02:10:45;;;;;;;37.58;24.73;;;;;;;1.89;79.58;95133.13;5019501;28;20057;-58
2021/01/22 02:13:13;;;;;;;31.95;23.83;;;;;;;1.89;79.68;95133.91;5012417;28;20423;-58
2021/01/22 02:15:41;;;;;;;35.72;23.08;;;;;;;1.91;79.44;95121.47;5017966;28;20639;-58
2021/01/22 02:18:09;;;;;;;36.53;24.55;;;;;;;1.92;79.45;95114.47;5016522;28;20037;-59
2021/01/22 02:21:01;;;;;;;36.13;25.05;;;;;;;1.95;79.85;95114.84;5017920;28;20045;-58
2021/01/22 02:23:32;;;;;;;33.78;20.90;;;;;;;2.00;80.14;95111.56;4997206;28;20057;-58
2021/01/22 02:26:19;;;;;;;28.15;19.98;;;;;;;2.10;80.48;95101.41;5017390;28;20045;-59
2021/01/22 02:28:48;;;;;;;34.67;20.90;;;;;;;2.20;80.13;95106.09;5010747;28;20494;-59
2021/01/22 02:31:16;;;;;;;27.17;20.20;;;;;;;2.28;80.78;95103.16;5018907;28;20049;-59
2021/01/22 02:33:46;;;;;;;29.90;21.33;;;;;;;2.39;80.01;95093.81;5017198;28;20623;-59
2021/01/22 02:36:14;;;;;;;30.30;24.20;;;;;;;2.40;79.35;95084.94;5020363;28;20033;-58
2021/01/22 02:38:44;;;;;;;30.40;22.90;;;;;;;2.41;79.53;95086.53;5006286;28;20060;-58
2021/01/22 02:41:14;;;;;;;36.70;22.25;;;;;;;2.46;79.93;95078.06;4998061;28;20053;-58
2021/01/22 02:43:43;;;;;;;24.02;17.77;;;;;;;2.56;80.58;95074.91;5014566;28;20068;-58
2021/01/22 02:46:11;;;;;;;30.67;19.25;;;;;;;2.70;79.84;95073.66;5018071;28;20044;-58
2021/01/22 02:48:39;;;;;;;26.42;20.27;;;;;;;2.77;79.33;95070.94;5023281;28;20049;-58
2021/01/22 02:51:13;;;;;;;30.63;18.58;;;;;;;2.76;80.11;95077.97;5024447;28;20571;-58
2021/01/22 02:53:40;;;;;;;26.45;17.25;;;;;;;2.87;79.98;95052.16;5014044;28;20053;-59
2021/01/22 02:56:18;;;;;;;25.17;19.25;;;;;;;2.95;79.34;95053.63;5004113;28;20037;-58
2021/01/22 02:58:56;;;;;;;29.75;19.65;;;;;;;2.96;79.10;95050.78;5021500;28;20327;-58
2021/01/22 03:01:28;;;;;;;27.42;17.90;;;;;;;2.95;79.16;95041.38;5015552;28;20046;-58
2021/01/22 03:04:10;;;;;;;25.35;17.15;;;;;;;3.01;79.28;95056.09;5025724;28;20038;-58
2021/01/22 03:06:44;;;;;;;24.05;17.15;;;;;;;3.09;78.90;95057.53;5023224;28;20046;-58
2021/01/22 03:09:19;;;;;;;22.85;14.30;;;;;;;3.16;79.76;95055.63;5004518;28;20053;-58
2021/01/22 03:11:49;;;;;;;25.60;16.33;;;;;;;3.43;78.82;95054.31;5024612;28;20045;-58
2021/01/22 03:14:19;;;;;;;27.63;17.02;;;;;;;3.37;78.05;95049.00;5002322;28;20053;-58
2021/01/22 03:16:50;;;;;;;22.15;15.20;;;;;;;3.36;78.06;95044.81;5022913;28;20053;-59
2021/01/22 03:19:18;;;;;;;19.67;13.38;;;;;;;3.35;78.91;95053.66;5029266;28;20044;-59
2021/01/22 03:21:45;;;;;;;20.60;13.48;;;;;;;3.47;78.54;95039.78;5023073;28;20060;-59
2021/01/22 03:24:12;;;;;;;20.75;14.80;;;;;;;3.47;77.89;95027.53;5021674;28;20061;-58
2021/01/22 03:26:39;;;;;;;21.77;13.85;;;;;;;3.48;78.45;95033.56;5019010;28;20049;-60
2021/01/22 03:29:06;;;;;;;27.70;15.18;;;;;;;3.51;78.28;95035.66;5005518;28;20046;-62
2021/01/22 03:31:35;;;;;;;16.33;11.27;;;;;;;3.55;78.72;95015.94;5016630;28;20046;-58
2021/01/22 03:34:02;;;;;;;17.38;11.82;;;;;;;3.65;78.71;95016.13;4986941;28;20563;-59
2021/01/22 03:36:29;;;;;;;13.75;7.82;;;;;;;3.78;79.42;95029.91;5025316;28;20056;-59
2021/01/22 03:38:57;;;;;;;17.08;9.70;;;;;;;3.99;78.61;95010.97;4999217;28;20463;-59
2021/01/22 03:41:23;;;;;;;8.10;6.22;;;;;;;4.17;78.28;95001.31;5003284;28;20050;-59
2021/01/22 03:43:50;;;;;;;13.40;7.75;;;;;;;4.27;77.78;95009.31;5010257;28;20049;-59
2021/01/22 03:46:18;;;;;;;12.48;8.10;;;;;;;4.38;77.45;95010.25;5016752;28;20052;-59
2021/01/22 03:48:46;;;;;;;8.77;6.88;;;;;;;4.46;77.25;95003.84;5019924;28;20061;-59
2021/01/22 03:51:13;;;;;;;8.90;5.82;;;;;;;4.54;77.63;94998.22;5022350;28;20046;-59
2021/01/22 03:53:40;;;;;;;11.18;6.88;;;;;;;4.64;77.54;94989.72;5015795;28;20049;-59
2021/01/22 03:56:07;;;;;;;11.57;6.28;;;;;;;4.77;76.21;94999.03;5025348;28;20034;-65
2021/01/22 03:58:35;;;;;;;10.93;6.47;;;;;;;4.77;76.16;94985.97;5022627;28;20414;-66
2021/01/22 04:01:03;;;;;;;9.02;6.25;;;;;;;4.85;75.80;94998.63;5000762;28;20064;-59
2021/01/22 04:03:30;;;;;;;8.93;5.60;;;;;;;4.90;76.04;94998.69;5017112;28;20064;-59
2021/01/22 04:05:58;;;;;;;10.23;6.20;;;;;;;4.99;75.70;94995.66;5018445;28;20117;-63
2021/01/22 04:08:25;;;;;;;9.25;4.78;;;;;;;5.08;76.03;94983.75;5020584;28;20060;-59
2021/01/22 04:10:52;;;;;;;12.60;5.72;;;;;;;5.20;75.21;94976.56;5017806;28;20502;-59
2021/01/22 04:13:19;;;;;;;9.27;5.82;;;;;;;5.24;74.73;94985.50;5013456;28;21364;-59
2021/01/22 04:15:46;;;;;;;7.53;5.43;;;;;;;5.26;74.95;94984.47;4998019;28;20609;-63
2021/01/22 04:18:13;;;;;;;11.27;6.60;;;;;;;5.29;74.95;94991.81;5003447;28;20061;-59
2021/01/22 04:20:40;;;;;;;6.85;5.97;;;;;;;5.33;74.36;94985.09;4985914;28;20053;-59
2021/01/22 04:23:08;;;;;;;13.90;7.40;;;;;;;5.36;73.71;94985.38;4998228;28;20145;-59
2021/01/22 04:25:35;;;;;;;11.07;6.80;;;;;;;5.37;73.61;94967.84;5018087;28;20050;-60
2021/01/22 04:28:02;;;;;;;9.20;5.90;;;;;;;5.39;74.00;94968.41;5016901;28;20053;-63
2021/01/22 04:30:33;;;;;;;13.73;7.20;;;;;;;5.37;74.28;94966.03;5019907;28;20045;-59
2021/01/22 04:33:00;;;;;;;11.13;6.20;;;;;;;5.38;73.93;94967.63;5018967;28;20065;-59
2021/01/22 04:35:28;;;;;;;7.57;6.07;;;;;;;5.39;73.07;94956.13;5001300;28;20049;-60
2021/01/22 04:37:55;;;;;;;11.90;6.47;;;;;;;5.41;73.55;94948.03;5017021;28;20053;-59
2021/01/22 04:40:24;;;;;;;9.60;6.03;;;;;;;5.37;73.35;94939.88;5001179;28;20049;-59
2021/01/22 04:42:51;;;;;;;6.35;5.68;;;;;;;5.38;73.22;94944.09;4997891;28;20057;-59
2021/01/22 04:45:18;;;;;;;10.00;6.47;;;;;;;5.37;73.93;94952.16;5013042;28;20493;-59
2021/01/22 04:47:45;;;;;;;9.82;6.40;;;;;;;5.41;73.05;94961.09;5018696;28;20052;-59
2021/01/22 04:50:16;;;;;;;7.85;5.78;;;;;;;5.46;73.42;94944.66;5020951;28;20049;-61
2021/01/22 04:52:44;;;;;;;10.65;6.50;;;;;;;5.45;73.48;94959.56;5014637;28;20045;-59
2021/01/22 04:55:13;;;;;;;10.15;5.93;;;;;;;5.41;73.33;94948.03;5014809;28;20416;-60
2021/01/22 04:57:43;;;;;;;8.48;6.05;;;;;;;5.45;73.40;94956.97;5015645;28;20045;-59
2021/01/22 05:00:12;;;;;;;8.23;5.65;;;;;;;5.47;73.98;94954.09;5015606;28;20789;-59
2021/01/22 05:02:40;;;;;;;12.75;6.30;;;;;;;5.45;73.52;94946.50;5017563;28;20057;-59
2021/01/22 05:05:08;;;;;;;10.15;6.53;;;;;;;5.47;73.17;94948.84;4996360;28;20068;-60
2021/01/22 05:07:36;;;;;;;8.40;6.88;;;;;;;5.38;74.06;94938.03;5004352;28;20052;-59
2021/01/22 05:10:04;;;;;;;7.38;5.75;;;;;;;5.47;73.94;94954.09;5018083;28;20089;-59
2021/01/22 05:12:34;;;;;;;10.00;7.00;;;;;;;5.51;73.81;94952.56;4996016;28;20072;-59
2021/01/22 05:15:17;;;;;;;9.43;6.32;;;;;;;5.52;74.02;94948.91;4993432;28;20049;-65
2021/01/22 05:17:54;;;;;;;9.35;6.57;;;;;;;5.51;73.67;94929.03;5014988;28;20405;-61
2021/01/22 05:20:32;;;;;;;8.65;6.55;;;;;;;5.51;73.27;94945.50;5020476;28;20065;-59
2021/01/22 05:23:06;;;;;;;10.38;6.53;;;;;;;5.53;74.03;94942.66;4998723;28;20564;-59
2021/01/22 05:25:54;;;;;;;11.27;6.82;;;;;;;5.56;73.49;94946.59;5015317;28;20064;-59
2021/01/22 05:28:33;;;;;;;9.25;6.70;;;;;;;5.54;73.02;94934.56;5016935;28;20053;-59
2021/01/22 05:31:01;;;;;;;13.93;8.80;;;;;;;5.54;73.76;94937.16;4987077;28;20053;-59
2021/01/22 05:33:30;;;;;;;13.75;8.02;;;;;;;5.53;73.71;94937.44;4993708;28;20046;-60
2021/01/22 05:35:58;;;;;;;9.88;6.35;;;;;;;5.51;73.70;94929.03;5021167;28;20060;-59
2021/01/22 05:38:41;;;;;;;7.80;5.95;;;;;;;5.54;73.28;94931.94;5002959;28;20056;-59
2021/01/22 05:41:08;;;;;;;15.55;6.75;;;;;;;5.53;73.16;94934.81;5004253;28;20064;-60
2021/01/22 05:43:37;;;;;;;8.98;6.60;;;;;;;5.53;73.55;94926.97;5016015;28;20065;-60
2021/01/22 05:46:16;;;;;;;10.00;5.82;;;;;;;5.52;73.28;94930.59;5018184;28;20060;-59
2021/01/22 05:48:43;;;;;;;9.57;6.32;;;;;;;5.56;73.09;94934.28;5017239;28;20049;-61
2021/01/22 05:51:12;;;;;;;6.95;5.88;;;;;;;5.56;73.15;94931.69;5003200;28;20056;-59
2021/01/22 05:53:47;;;;;;;8.05;6.13;;;;;;;5.58;73.49;94936.69;5013905;28;20053;-59
2021/01/22 05:56:15;;;;;;;;;;;;;;;5.54;72.66;94921.47;5019021;28;20593;-67
2021/01/22 05:58:47;;;;;;;7.40;5.78;;;;;;;5.62;72.65;94941.16;5016755;28;19925;-59
2021/01/22 06:01:15;;;;;;;10.50;6.88;;;;;;;5.68;72.62;94936.75;5012271;28;20041;-59
2021/01/22 06:03:47;;;;;;;9.80;6.30;;;;;;;5.68;72.89;94928.91;4996706;28;20060;-59
2021/01/22 06:06:16;;;;;;;7.90;6.03;;;;;;;5.69;72.85;94933.13;4994372;28;20521;-63
2021/01/22 06:08:54;;;;;;;10.70;5.93;;;;;;;5.72;72.48;94923.97;5012602;28;20068;-60
2021/01/22 06:11:25;;;;;;;8.23;6.47;;;;;;;5.73;72.34;94931.56;5015123;28;20498;-65
2021/01/22 06:13:57;;;;;;;9.45;5.93;;;;;;;5.73;72.18;94933.41;5013772;28;20049;-59
2021/01/22 06:16:27;;;;;;;10.38;5.60;;;;;;;5.72;72.88;94935.25;4992561;28;20393;-62
2021/01/22 06:19:03;;;;;;;13.38;6.22;;;;;;;5.72;72.73;94930.00;5020041;28;20481;-60
2021/01/22 06:22:06;;;;;;;8.60;5.40;;;;;;;5.75;72.52;94931.31;5021159;28;20081;-59
2021/01/22 06:24:34;;;;;;;9.05;6.15;;;;;;;5.73;72.30;94931.56;4991793;28;20170;-61
2021/01/22 06:27:03;;;;;;;10.65;5.53;;;;;;;5.77;72.50;94937.88;5001004;28;20045;-59
2021/01/22 06:29:32;;;;;;;10.70;5.95;;;;;;;5.77;72.01;94929.25;5011642;28;20060;-59
2021/01/22 06:32:01;;;;;;;9.70;6.05;;;;;;;5.77;71.86;94930.03;5017732;28;20598;-64
2021/01/22 06:34:38;;;;;;;7.63;6.55;;;;;;;5.78;72.27;94934.22;5017317;28;20061;-60
2021/01/22 06:37:09;;;;;;;8.55;6.43;;;;;;;5.75;72.34;94926.88;5012061;28;20509;-59
2021/01/22 06:39:38;;;;;;;9.50;7.45;;;;;;;5.76;73.11;94936.31;4990703;28;20069;-62
2021/01/22 06:42:06;;;;;;;12.10;6.93;;;;;;;5.76;71.94;94925.84;4998177;28;20535;-59
2021/01/22 06:44:33;;;;;;;10.02;6.55;;;;;;;5.77;72.53;94922.19;5009152;28;20057;-59
2021/01/22 06:47:11;;;;;;;12.45;6.38;;;;;;;5.75;72.37;94924.25;5017681;28;20049;-59
2021/01/22 06:49:39;;;;;;;9.40;5.60;;;;;;;5.77;73.01;94919.56;4993916;28;20650;-59
2021/01/22 06:52:12;;;;;;;11.82;6.93;;;;;;;5.80;72.27;94924.31;4992987;28;20068;-59
2021/01/22 06:54:57;;;;;;;13.93;8.90;;;;;;;5.83;71.91;94918.59;4994211;28;20523;-60
2021/01/22 06:57:24;;;;;;;17.33;8.48;;;;;;;5.81;71.96;94922.47;5013036;28;20129;-59
2021/01/22 06:59:51;;;;;;;13.48;8.25;;;;;;;5.80;72.29;94932.16;5007757;28;20053;-59
2021/01/22 07:02:44;;;;;;;9.63;6.88;;;;;;;5.77;73.03;94937.88;5010535;28;20057;-63
2021/01/22 07:05:37;;;;;;;8.40;6.43;;;;;;;5.76;72.48;94930.28;4979231;28;20061;-60
2021/01/22 07:08:05;;;;;;;10.85;7.38;;;;;;;5.76;72.45;94930.28;5012795;28;20041;-63
2021/01/22 07:11:08;;;;;;;7.60;6.68;;;;;;;5.77;72.19;94927.41;5014133;28;20076;-59
2021/01/22 07:13:37;;;;;;;9.00;6.97;;;;;;;5.78;72.44;94931.63;4963571;28;20051;-65
2021/01/22 07:16:10;;;;;;;9.10;6.70;;;;;;;5.79;72.67;94927.97;4986128;28;20064;-73
2021/01/22 07:18:51;;;;;;;9.52;7.00;;;;;;;5.83;72.54;94918.59;4992669;28;20464;-64
2021/01/22 07:21:28;;;;;;;10.00;6.88;;;;;;;5.84;72.38;94938.47;5017698;28;20091;-59
2021/01/22 07:23:59;;;;;;;10.85;6.97;;;;;;;5.83;72.19;94921.19;5004473;28;20084;-62
2021/01/22 07:26:39;;;;;;;10.38;5.95;;;;;;;5.90;71.82;94928.03;5019271;28;20233;-60
2021/01/22 07:29:24;;;;;;;12.80;8.38;;;;;;;5.89;71.50;94923.84;5005157;28;20534;-59
2021/01/22 07:32:01;;;;;;;10.27;7.53;;;;;;;5.90;72.16;94925.41;5020498;28;20045;-60
2021/01/22 07:34:50;;;;;;;10.77;7.03;;;;;;;5.90;72.24;94928.03;5018114;28;20049;-61
2021/01/22 07:37:22;;;;;;;7.40;6.32;;;;;;;5.88;72.27;94917.03;5017324;28;20044;-60
2021/01/22 07:39:53;;;;;;;15.32;7.18;;;;;;;5.94;72.50;94927.28;4996297;28;20533;-60
2021/01/22 07:42:23;;;;;;;10.10;6.90;;;;;;;5.94;71.77;94926.50;5018706;28;20068;-58
2021/01/22 07:44:52;;;;;;;15.25;7.80;;;;;;;5.96;71.72;94919.97;5018405;28;20053;-59
2021/01/22 07:47:28;;;;;;;11.35;8.13;;;;;;;5.98;72.35;94925.75;5015566;28;20045;-60
2021/01/22 07:50:10;;;;;;;11.50;7.65;;;;;;;5.98;72.07;94922.31;5014130;28;20065;-64
2021/01/22 07:52:40;;;;;;;14.00;8.35;;;;;;;6.00;72.30;94921.09;5013665;28;20041;-60
2021/01/22 07:55:14;;;;;;;11.52;7.43;;;;;;;6.05;71.94;94933.44;5020855;28;20309;-61
2021/01/22 07:57:42;;;;;;;10.18;7.53;;;;;;;6.05;71.02;94928.19;4981491;28;20050;-60
2021/01/22 08:00:14;;;;;;;11.63;7.53;;;;;;;6.05;71.21;94928.19;4998546;28;20408;-59
2021/01/22 08:02:55;;;;;;;9.73;6.55;;;;;;;6.04;72.04;94915.34;4989151;28;20060;-59
2021/01/22 08:05:34;;;;;;;10.35;7.00;;;;;;;6.10;71.80;94937.91;4998207;28;20049;-58
2021/01/22 08:08:25;;;;;;;12.18;8.25;;;;;;;6.11;72.00;94932.41;5002176;28;20048;-60
2021/01/22 08:10:52;;;;;;;9.20;7.18;;;;;;;6.12;71.87;94927.97;5008695;28;20056;-59
2021/01/22 08:13:19;;;;;;;11.43;8.65;;;;;;;6.10;71.71;94925.59;4999784;28;20038;-63
2021/01/22 08:16:01;;;;;;;10.55;7.78;;;;;;;6.09;72.17;94926.63;4991495;28;20061;-63
2021/01/22 08:18:30;;;;;;;9.85;7.45;;;;;;;6.17;71.49;94924.59;4993718;28;20482;-63
2021/01/22 08:20:58;;;;;;;9.50;7.95;;;;;;;6.19;71.14;94928.53;5003414;28;20694;-60
2021/01/22 08:23:31;;;;;;;12.32;7.72;;;;;;;6.20;71.10;94927.50;4976962;28;20049;-61
2021/01/22 08:25:59;;;;;;;10.85;6.53;;;;;;;6.20;71.37;94926.72;4981406;28;20045;-61
2021/01/22 08:28:30;;;;;;;11.93;8.40;;;;;;;6.21;70.72;94925.69;5010338;28;20041;-63
2021/01/22 08:30:57;;;;;;;9.73;8.13;;;;;;;6.20;71.11;94924.09;5004288;28;20910;-60
2021/01/22 08:33:25;;;;;;;12.05;8.57;;;;;;;6.20;71.09;94921.47;4966226;28;20328;-60
2021/01/22 08:35:52;;;;;;;12.13;9.65;;;;;;;6.19;70.54;94925.13;5006191;28;20049;-60
2021/01/22 08:38:20;;;;;;;12.02;9.82;;;;;;;6.10;71.10;94906.47;4992784;28;20041;-60
2021/01/22 08:40:47;;;;;;;14.45;9.88;;;;;;;6.17;71.41;94924.59;4992598;28;20049;-60
2021/01/22 08:43:15;;;;;;;11.73;8.73;;;;;;;6.17;71.22;94922.75;4976622;28;20520;-61
2021/01/22 08:46:02;;;;;;;13.45;8.82;;;;;;;6.16;71.08;94921.19;4993528;28;20049;-60
2021/01/22 08:48:30;;;;;;;13.48;10.18;;;;;;;6.11;70.35;94919.31;5009897;28;20376;-60
2021/01/22 08:50:58;;;;;;;13.38;10.68;;;;;;;6.12;70.56;94933.22;4994488;28;20514;-60
2021/01/22 08:53:26;;;;;;;12.90;10.50;;;;;;;6.09;70.69;94921.38;4976802;28;20050;-59
2021/01/22 08:56:10;;;;;;;15.18;9.57;;;;;;;6.06;70.95;94931.59;5006386;28;20406;-60
2021/01/22 08:58:57;;;;;;;13.30;9.45;;;;;;;6.08;70.70;94929.50;5014900;28;20056;-61
2021/01/22 09:01:47;;;;;;;10.68;8.80;;;;;;;6.09;70.88;94923.22;5003025;28;20386;-60
2021/01/22 09:04:27;;;;;;;12.65;9.02;;;;;;;6.07;70.96;94926.13;5015827;28;20041;-62
2021/01/22 09:06:56;;;;;;;15.02;11.43;;;;;;;6.07;70.65;94917.47;5005285;28;20053;-58
2021/01/22 09:09:43;;;;;;;14.32;10.18;;;;;;;6.09;70.83;94929.25;5016568;28;20433;-59
2021/01/22 09:12:19;;;;;;;15.18;10.70;;;;;;;6.13;70.56;94924.31;4999231;28;20414;-58
2021/01/22 09:14:49;;;;;;;12.48;10.32;;;;;;;6.17;71.48;94935.06;4997564;28;20053;-60
2021/01/22 09:17:53;;;;;;;14.05;11.20;;;;;;;6.21;70.73;94925.69;5019518;28;20056;-60
2021/01/22 09:20:26;;;;;;;15.43;9.18;;;;;;;6.26;70.43;94933.56;5023677;28;20061;-60
2021/01/22 09:23:02;;;;;;;12.07;10.13;;;;;;;6.28;69.81;94921.00;5001487;28;20060;-62
2021/01/22 09:25:29;;;;;;;11.70;10.25;;;;;;;6.31;69.89;94921.28;5017380;28;20053;-59
2021/01/22 09:27:56;;;;;;;10.18;8.00;;;;;;;6.35;70.44;94924.19;5017240;28;20041;-57
2021/01/22 09:30:26;;;;;;;10.23;8.38;;;;;;;6.36;69.80;94917.91;5000919;28;20799;-58
2021/01/22 09:32:55;;;;;;;11.25;8.93;;;;;;;6.32;69.99;94903.75;5017768;28;20053;-60
2021/01/22 09:35:29;;;;;;;9.35;8.35;;;;;;;6.41;69.94;94917.13;5001437;28;20065;-60
2021/01/22 09:37:57;;;;;;;8.65;7.43;;;;;;;6.44;70.12;94920.06;5017951;28;20052;-59
2021/01/22 09:40:25;;;;;;;7.88;6.47;;;;;;;6.51;69.04;94916.41;5019301;28;20516;-59
2021/01/22 09:42:52;;;;;;;14.48;9.20;;;;;;;6.51;69.98;94919.84;5015047;28;20041;-60
2021/01/22 09:45:20;;;;;;;10.00;7.90;;;;;;;6.56;69.96;94919.06;5013371;28;20046;-59
2021/01/22 09:47:47;;;;;;;9.05;7.97;;;;;;;6.60;70.24;94912.25;5001756;28;20058;-59
2021/01/22 09:50:17;;;;;;;11.15;8.98;;;;;;;6.72;70.28;94904.19;4992384;28;20418;-58
2021/01/22 09:52:44;;;;;;;8.65;7.75;;;;;;;6.83;68.94;94902.41;5010000;28;20054;-58
2021/01/22 09:55:16;;;;;;;8.00;6.85;;;;;;;6.78;69.63;94895.31;5008082;28;20445;-59
2021/01/22 09:57:43;;;;;;;9.43;7.57;;;;;;;6.79;69.65;94901.34;5004329;28;20064;-59
2021/01/22 10:00:16;;;;;;;10.68;6.95;;;;;;;6.71;69.59;94890.28;5011981;28;20406;-59
2021/01/22 10:02:44;;;;;;;10.07;7.40;;;;;;;6.72;70.11;94901.59;5006168;28;20053;-59
2021/01/22 10:05:12;;;;;;;6.45;5.85;;;;;;;6.68;69.75;94897.88;5007924;28;20163;-59
2021/01/22 10:07:39;;;;;;;11.25;7.15;;;;;;;6.67;70.49;94899.72;4995621;28;20053;-59
2021/01/22 10:10:07;;;;;;;9.48;7.65;;;;;;;6.63;70.67;94885.56;5009947;28;20064;-65
2021/01/22 10:12:34;;;;;;;9.50;7.50;;;;;;;6.64;70.67;94874.03;5017874;28;20053;-58
2021/01/22 10:15:04;;;;;;;11.23;9.15;;;;;;;6.68;70.39;94885.59;5009628;28;20049;-59
2021/01/22 10:17:32;;;;;;;9.63;7.32;;;;;;;6.78;69.80;94879.56;5012510;28;20047;-59
2021/01/22 10:19:59;;;;;;;6.35;5.40;;;;;;;6.76;69.44;94879.84;5008463;28;20062;-59
2021/01/22 10:22:26;;;;;;;6.75;5.78;;;;;;;6.73;69.84;94876.94;5008886;28;20336;-61
2021/01/22 10:24:53;;;;;;;6.10;5.05;;;;;;;6.77;69.12;94865.69;4998040;28;20054;-58
2021/01/22 10:27:21;;;;;;;4.72;4.22;;;;;;;6.76;68.92;94868.59;5009637;28;20406;-58
2021/01/22 10:29:48;;;;;;;7.60;4.97;;;;;;;6.76;69.73;94871.19;4996848;28;20049;-59
2021/01/22 10:32:15;;;;;;;4.28;3.80;;;;;;;6.72;69.04;94868.28;4995157;28;20075;-58
2021/01/22 10:34:42;;;;;;;4.63;4.18;;;;;;;6.71;68.84;94874.56;4976259;28;20072;-59
2021/01/22 10:37:09;;;;;;;4.10;3.67;;;;;;;6.65;69.18;94861.69;4992912;28;20045;-58
2021/01/22 10:39:37;;;;;;;5.05;4.55;;;;;;;6.64;69.77;94866.16;5011602;28;20108;-61
2021/01/22 10:42:04;;;;;;;6.10;3.88;;;;;;;6.57;69.26;94870.88;5012729;28;20049;-59
2021/01/22 10:44:31;;;;;;;5.35;4.15;;;;;;;6.48;70.39;94873.19;5008879;28;20049;-61
2021/01/22 10:46:59;;;;;;;7.82;4.75;;;;;;;6.46;70.54;94873.41;5008801;28;20049;-59
2021/01/22 10:49:26;;;;;;;5.15;4.55;;;;;;;6.45;70.49;94874.47;4991902;28;20331;-58
2021/01/22 10:51:53;;;;;;;5.13;4.50;;;;;;;6.44;70.34;94883.38;5010971;28;20429;-58
2021/01/22 10:54:20;;;;;;;5.10;4.55;;;;;;;6.46;71.04;94875.25;5007606;28;20065;-59
2021/01/22 10:56:47;;;;;;;3.95;3.63;;;;;;;6.46;70.84;94870.78;5011695;28;20384;-59
2021/01/22 10:59:15;;;;;;;4.28;3.83;;;;;;;6.43;71.12;94868.72;5014873;28;20053;-61
2021/01/22 11:01:42;;;;;;;5.10;4.40;;;;;;;6.35;71.79;94873.63;5017311;28;20060;-61
2021/01/22 11:04:09;;;;;;;5.57;4.43;;;;;;;6.32;71.31;94864.47;5000829;28;20049;-58
2021/01/22 11:06:36;;;;;;;8.00;5.28;;;;;;;6.40;71.10;94861.34;4979696;28;20551;-58
2021/01/22 11:09:03;;;;;;;6.80;3.95;;;;;;;6.43;70.98;94858.22;4998586;28;20046;-59
2021/01/22 11:11:30;;;;;;;7.65;4.88;;;;;;;6.42;71.14;94856.66;5008996;28;20054;-58
2021/01/22 11:13:57;;;;;;;6.78;4.68;;;;;;;6.46;71.55;94847.22;5011954;28;20057;-58
2021/01/22 11:16:24;;;;;;;5.55;4.32;;;;;;;6.50;71.38;94870.28;4991277;28;20064;-59
2021/01/22 11:18:51;;;;;;;5.63;4.50;;;;;;;6.45;71.26;94850.09;5010867;28;20922;-58
2021/01/22 11:21:18;;;;;;;5.63;4.10;;;;;;;6.45;71.48;94858.78;4998857;28;20323;-62
2021/01/22 11:23:45;;;;;;;5.75;4.68;;;;;;;6.44;71.58;94849.34;5014472;28;20056;-59
2021/01/22 11:26:12;;;;;;;6.88;5.10;;;;;;;6.47;72.01;94850.63;5007042;28;20090;-58
2021/01/22 11:28:39;;;;;;;10.25;6.07;;;;;;;6.48;72.38;94857.47;4993739;28;20049;-58
2021/01/22 11:31:07;;;;;;;6.72;4.88;;;;;;;6.44;72.71;94853.75;5009206;28;20049;-64
2021/01/22 11:33:34;;;;;;;7.68;6.07;;;;;;;6.35;72.60;94835.13;5013729;28;20049;-59
2021/01/22 11:36:02;;;;;;;9.82;6.05;;;;;;;6.34;72.83;94845.88;4986226;28;20509;-59
2021/01/22 11:38:29;;;;;;;8.10;5.65;;;;;;;6.26;73.10;94844.50;5015066;28;20064;-59
2021/01/22 11:40:56;;;;;;;8.57;5.90;;;;;;;6.18;73.11;94832.69;5014792;28;20056;-58
2021/01/22 11:43:24;;;;;;;6.35;5.45;;;;;;;6.14;73.62;94832.41;4994371;28;20042;-60
2021/01/22 11:45:51;;;;;;;5.18;4.60;;;;;;;6.07;73.85;94836.28;5010333;28;20647;-58
2021/01/22 11:48:18;;;;;;;7.45;4.95;;;;;;;6.05;74.72;94827.91;5013661;28;20045;-62
2021/01/22 11:50:45;;;;;;;5.40;4.78;;;;;;;5.96;74.39;94822.34;5008322;28;20052;-59